Winedale's Hourly Summary for Wednesday, July 11, 2018
Hour Temp
(f)
RH
(%)
Solar Rad.
(MJ/m2)
Rainfall
(in)
Wind
(mph)
7/11/2018 12:00 AM 78 85 0 0 2.4
7/11/2018 1:00 AM 77 87 0 0 2.28
7/11/2018 2:00 AM 76 90 0 0 3.25
7/11/2018 3:00 AM 75 91 0 0 2.84
7/11/2018 4:00 AM 75 93 0 0 0.28
7/11/2018 5:00 AM 74 96 0 0 2.09
7/11/2018 6:00 AM 74 97 0 0 1.33
7/11/2018 7:00 AM 73 98 0.01 0 0.66
7/11/2018 8:00 AM 74 96 0.3 0 2.29
7/11/2018 9:00 AM 78 83 0.97 0 3.85
7/11/2018 10:00 AM 81 68 1.59 0 4.33
7/11/2018 11:00 AM 84 57 2.35 0 4.2
7/11/2018 12:00 PM 86 55 3 0 4.73
7/11/2018 1:00 PM 88 51 3.26 0 3.52
7/11/2018 2:00 PM 89 49 3.16 0 3.35
7/11/2018 3:00 PM 91 46 3.27 0 3.24
7/11/2018 4:00 PM 92 43 2.89 0 2.79
7/11/2018 5:00 PM 92 42 1.75 0 2.8
7/11/2018 6:00 PM 92 43 0.81 0 1.34
7/11/2018 7:00 PM 89 46 0.5 0 1.03
7/11/2018 8:00 PM 87 54 0.23 0 0.3
7/11/2018 9:00 PM 83 63 0.03 0 0.13
7/11/2018 10:00 PM 80 71 0 0 0.02
7/11/2018 11:00 PM 80 77 0 0 2.86
Data Summary 82 70 24.12 0.00 2.33